createdAt,value
2024-04-25T00:04:33.502Z,1004.1
2024-04-25T00:09:26.019Z,1004.07
2024-04-25T00:14:18.221Z,1004.04
2024-04-25T00:19:10.261Z,1004.02
2024-04-25T00:24:02.822Z,1004.03
2024-04-25T00:28:56.322Z,1004.03
2024-04-25T00:33:47.921Z,1003.98
2024-04-25T00:38:40.290Z,1003.99
2024-04-25T00:43:32.539Z,1004.01
2024-04-25T00:48:29.327Z,1003.92
2024-04-25T00:53:20.678Z,1003.9
2024-04-25T00:58:13.262Z,1003.88
2024-04-25T01:03:05.516Z,1003.83
2024-04-25T01:07:58.119Z,1003.84
2024-04-25T01:12:50.479Z,1003.82
2024-04-25T01:17:43.139Z,1003.82
2024-04-25T01:22:35.597Z,1003.79
2024-04-25T01:27:28.256Z,1003.75
2024-04-25T01:32:20.470Z,1003.74
2024-04-25T01:37:13.202Z,1003.81
2024-04-25T01:42:05.572Z,1003.9
2024-04-25T01:46:58.130Z,1003.85
2024-04-25T01:51:50.545Z,1003.84
2024-04-25T01:56:43.068Z,1003.8
2024-04-25T02:01:35.786Z,1003.81
2024-04-25T02:06:28.087Z,1003.78
2024-04-25T02:11:20.596Z,1003.81
2024-04-25T02:16:13.269Z,1003.85
2024-04-25T02:21:05.607Z,1003.94
2024-04-25T02:25:58.395Z,1004.03
2024-04-25T02:30:50.460Z,1003.98
2024-04-25T02:35:43.207Z,1003.93
2024-04-25T02:40:35.750Z,1003.91
2024-04-25T02:45:28.337Z,1003.89
2024-04-25T02:50:20.575Z,1003.95
2024-04-25T02:55:13.027Z,1003.97
2024-04-25T03:00:05.645Z,1003.91
2024-04-25T03:04:58.069Z,1003.91
2024-04-25T03:09:50.177Z,1003.89
2024-04-25T03:14:42.893Z,1003.88
2024-04-25T03:19:35.317Z,1003.86
2024-04-25T03:24:28.008Z,1003.9
2024-04-25T03:29:20.535Z,1003.91
2024-04-25T03:34:12.718Z,1003.86
2024-04-25T03:39:05.772Z,1003.86
2024-04-25T03:48:50.185Z,1003.81
2024-04-25T03:53:42.904Z,1003.74
2024-04-25T03:58:35.398Z,1003.8
2024-04-25T04:03:27.613Z,1003.78
2024-04-25T04:08:20.299Z,1003.84
2024-04-25T04:18:05.538Z,1003.84
2024-04-25T04:22:57.919Z,1003.82
2024-04-25T04:27:50.548Z,1003.84
2024-04-25T04:37:35.429Z,1003.97
2024-04-25T04:42:27.907Z,1004.04
2024-04-25T04:47:20.771Z,1004.07
2024-04-25T04:52:13.318Z,1004.14
2024-04-25T04:57:05.623Z,1004.19
2024-04-25T05:01:58.364Z,1004.19
2024-04-25T05:06:51.111Z,1004.24
2024-04-25T05:11:43.557Z,1004.25
2024-04-25T05:16:35.902Z,1004.24
2024-04-25T05:21:28.797Z,1004.27
2024-04-25T05:26:21.627Z,1004.27
2024-04-25T05:31:13.994Z,1004.29
2024-04-25T05:36:06.538Z,1004.35
2024-04-25T05:40:58.699Z,1004.34
2024-04-25T05:45:50.584Z,1004.36
2024-04-25T05:50:43.410Z,1004.4
2024-04-25T05:55:35.437Z,1004.45
2024-04-25T06:00:28.096Z,1004.45
2024-04-25T06:05:20.411Z,1004.46
2024-04-25T06:10:13.335Z,1004.45
2024-04-25T06:15:05.808Z,1004.54
2024-04-25T06:19:58.545Z,1004.5
2024-04-25T06:24:51.068Z,1004.48
2024-04-25T06:29:43.613Z,1004.53
2024-04-25T06:34:36.365Z,1004.61
2024-04-25T06:39:28.582Z,1004.67
2024-04-25T06:44:27.221Z,1004.72
2024-04-25T06:49:13.756Z,1004.77
2024-04-25T06:54:06.213Z,1004.74
2024-04-25T06:58:59.042Z,1004.76
2024-04-25T07:03:51.615Z,1004.79
2024-04-25T07:08:43.708Z,1004.8
2024-04-25T07:13:36.120Z,1004.81
2024-04-25T07:18:29.185Z,1004.85
2024-04-25T07:23:21.592Z,1004.88
2024-04-25T07:28:14.438Z,1004.95
2024-04-25T07:33:06.870Z,1004.98
2024-04-25T07:37:59.450Z,1005.02
2024-04-25T07:42:51.915Z,1005.01
2024-04-25T07:47:44.504Z,1005.02
2024-04-25T07:52:37.246Z,1005.04
2024-04-25T07:57:29.773Z,1005.05
2024-04-25T08:02:22.223Z,1005.04
2024-04-25T08:07:14.868Z,1005.09
2024-04-25T08:12:07.182Z,1005.14
2024-04-25T08:16:59.847Z,1005.09
2024-04-25T08:21:52.721Z,1005.13
2024-04-25T08:26:44.926Z,1005.2
2024-04-25T08:31:37.164Z,1005.17
2024-04-25T08:36:29.790Z,1005.22
2024-04-25T08:41:22.375Z,1005.27
2024-04-25T08:46:14.880Z,1005.31
2024-04-25T08:51:07.125Z,1005.32
2024-04-25T08:55:59.926Z,1005.3
2024-04-25T09:00:52.312Z,1005.31
2024-04-25T09:05:44.828Z,1005.28
2024-04-25T09:10:37.158Z,1005.28
2024-04-25T09:15:30.031Z,1005.2
2024-04-25T09:20:22.107Z,1005.22
2024-04-25T09:25:14.844Z,1005.18
2024-04-25T09:30:07.175Z,1005.27
2024-04-25T09:35:02.269Z,1005.18
2024-04-25T09:39:55.270Z,1005.14
2024-04-25T09:44:44.797Z,1005.03
2024-04-25T09:49:40.255Z,1004.99
2024-04-25T09:54:29.887Z,1005.05
2024-04-25T09:59:22.670Z,1004.92
2024-04-25T10:04:15.117Z,1004.97
2024-04-25T10:09:07.741Z,1005.04
2024-04-25T10:14:00.294Z,1005
2024-04-25T10:18:53.271Z,1004.95
2024-04-25T10:23:45.602Z,1004.86
2024-04-25T10:33:31.027Z,1004.68
2024-04-25T10:43:16.324Z,1004.7
2024-04-25T10:48:08.995Z,1004.75
2024-04-25T10:53:02.102Z,1004.76
2024-04-25T11:02:46.813Z,1005.2
2024-04-25T11:07:38.933Z,1005.18
2024-04-25T11:12:31.666Z,1005.05
2024-04-25T11:17:24.263Z,1004.94
2024-04-25T11:22:25.480Z,1004.85
2024-04-25T11:27:09.463Z,1004.76
2024-04-25T11:32:02.491Z,1004.75
2024-04-25T11:36:53.774Z,1004.67
2024-04-25T11:41:46.406Z,1004.61
2024-04-25T11:46:39.090Z,1004.61
2024-04-25T11:51:31.643Z,1004.63
2024-04-25T11:56:25.307Z,1004.68
2024-04-25T12:01:17.029Z,1004.88
2024-04-25T12:11:02.331Z,1004.83
2024-04-25T12:20:47.332Z,1004.69
2024-04-25T12:30:32.372Z,1004.74
2024-04-25T12:40:17.426Z,1004.66
2024-04-25T12:45:09.766Z,1004.61
2024-04-25T12:50:03.183Z,1004.58
2024-04-25T12:54:54.861Z,1004.5
2024-04-25T12:59:47.356Z,1004.65
2024-04-25T13:04:39.734Z,1004.73
2024-04-25T13:09:32.588Z,1004.96
2024-04-25T13:14:24.418Z,1005.17
2024-04-25T13:19:23.633Z,1005.23
2024-04-25T13:24:12.520Z,1005.27
2024-04-25T13:29:05.244Z,1005.11
2024-04-25T13:33:57.684Z,1005.04
2024-04-25T13:38:50.426Z,1005.1
2024-04-25T13:43:42.807Z,1005.15
2024-04-25T13:48:35.482Z,1005.13
2024-04-25T13:53:27.604Z,1005.13
2024-04-25T13:58:20.608Z,1005.04
2024-04-25T14:03:12.924Z,1005.01
2024-04-25T14:08:05.667Z,1005.03
2024-04-25T14:12:58.299Z,1005
2024-04-25T14:17:50.932Z,1004.96
2024-04-25T14:22:43.410Z,1004.83
2024-04-25T14:27:38.282Z,1004.84
2024-04-25T14:32:28.406Z,1004.83
2024-04-25T14:37:20.793Z,1004.88
2024-04-25T14:42:13.413Z,1004.95
2024-04-25T14:47:08.063Z,1004.88
2024-04-25T14:51:58.240Z,1004.92
2024-04-25T14:56:50.575Z,1004.93
2024-04-25T15:01:42.859Z,1004.92
2024-04-25T15:06:38.171Z,1004.94
2024-04-25T15:11:28.283Z,1004.85
2024-04-25T15:16:20.841Z,1004.86
2024-04-25T15:21:13.140Z,1004.82
2024-04-25T15:26:08.462Z,1004.84
2024-04-25T15:30:58.010Z,1004.75
2024-04-25T15:35:50.757Z,1004.82
2024-04-25T15:40:43.194Z,1004.8
2024-04-25T15:45:38.326Z,1004.76
2024-04-25T15:50:28.375Z,1004.79
2024-04-25T15:55:21.048Z,1004.78
2024-04-25T16:00:13.636Z,1004.78
2024-04-25T16:05:06.422Z,1004.82
2024-04-25T16:09:59.003Z,1004.82
2024-04-25T16:14:51.817Z,1004.95
2024-04-25T16:19:44.241Z,1005.04
2024-04-25T16:24:39.302Z,1005.07
2024-04-25T16:29:29.403Z,1005.07
2024-04-25T16:34:21.790Z,1005.06
2024-04-25T16:39:14.472Z,1005.09
2024-04-25T16:44:10.273Z,1005.05
2024-04-25T16:48:59.874Z,1005.06
2024-04-25T16:53:52.595Z,1004.96
2024-04-25T16:58:44.853Z,1004.91
2024-04-25T17:03:38.603Z,1004.95
2024-04-25T17:08:29.742Z,1004.91
2024-04-25T17:13:22.343Z,1004.92
2024-04-25T17:18:14.851Z,1004.96
2024-04-25T17:23:09.302Z,1004.95
2024-04-25T17:28:00.382Z,1004.97
2024-04-25T17:32:52.908Z,1005.03
2024-04-25T17:37:46.050Z,1005.07
2024-04-25T17:42:48.373Z,1005.03
2024-04-25T17:47:31.178Z,1005.12
2024-04-25T17:52:23.333Z,1005.16
2024-04-25T17:57:15.691Z,1005.19
2024-04-25T18:07:02.543Z,1005.31
2024-04-25T18:11:54.656Z,1005.3
2024-04-25T18:16:48.214Z,1005.38
2024-04-25T18:21:39.610Z,1005.44
2024-04-25T18:26:32.225Z,1005.46
2024-04-25T18:31:24.624Z,1005.53
2024-04-25T18:36:17.442Z,1005.61
2024-04-25T18:41:09.745Z,1005.59
2024-04-25T18:46:02.420Z,1005.62
2024-04-25T18:50:54.958Z,1005.69
2024-04-25T18:55:50.257Z,1005.73
2024-04-25T19:00:40.375Z,1005.73
2024-04-25T19:05:32.752Z,1005.73
2024-04-25T19:10:22.138Z,1005.75
2024-04-25T19:15:15.834Z,1005.77
2024-04-25T19:20:08.507Z,1005.77
2024-04-25T19:25:02.212Z,1005.81
2024-04-25T19:29:53.361Z,1005.79
2024-04-25T19:34:48.299Z,1005.83
2024-04-25T19:39:38.532Z,1005.87
2024-04-25T19:44:35.216Z,1005.89
2024-04-25T19:49:26.404Z,1005.91
2024-04-25T19:54:19.031Z,1005.92
2024-04-25T19:59:11.736Z,1005.96
2024-04-25T20:04:04.504Z,1006.01
2024-04-25T20:08:58.831Z,1006.04
2024-04-25T20:13:52.328Z,1006
2024-04-25T20:18:41.912Z,1006
2024-04-25T20:23:34.444Z,1006
2024-04-25T20:28:26.612Z,1006
2024-04-25T20:33:19.131Z,1005.94
2024-04-25T20:38:11.559Z,1005.93
2024-04-25T20:43:08.154Z,1006.01
2024-04-25T20:47:59.950Z,1006.02
2024-04-25T20:52:55.385Z,1006
2024-04-25T20:57:44.559Z,1005.99
2024-04-25T21:02:37.150Z,1005.98
2024-04-25T21:07:29.447Z,1005.99
2024-04-25T21:12:25.275Z,1005.96
2024-04-25T21:17:14.516Z,1006.04
2024-04-25T21:22:07.149Z,1006.1
2024-04-25T21:26:59.647Z,1006.07
2024-04-25T21:31:52.293Z,1006
2024-04-25T21:36:44.934Z,1006.09
2024-04-25T21:41:37.654Z,1006.07
2024-04-25T21:46:29.803Z,1006.1
2024-04-25T21:51:22.556Z,1006.03
2024-04-25T21:56:15.103Z,1006.08
2024-04-25T22:01:07.569Z,1006.12
2024-04-25T22:05:59.958Z,1006.14
2024-04-25T22:10:52.837Z,1006.1
2024-04-25T22:15:44.933Z,1006.07
2024-04-25T22:20:37.622Z,1006.09
2024-04-25T22:25:30.106Z,1006.09
2024-04-25T22:30:22.590Z,1006.12
2024-04-25T22:35:15.009Z,1006.15
2024-04-25T22:40:07.684Z,1006.16
2024-04-25T22:45:01.501Z,1006.17
2024-04-25T22:49:52.787Z,1006.19
2024-04-25T22:54:45.437Z,1006.18
2024-04-25T22:59:38.091Z,1006.13
2024-04-25T23:04:30.511Z,1006.1
2024-04-25T23:09:23.325Z,1006.08
2024-04-25T23:14:15.516Z,1006.03
2024-04-25T23:19:08.023Z,1006.08
2024-04-25T23:24:03.745Z,1006.01
2024-04-25T23:28:52.988Z,1006.03
2024-04-25T23:33:45.662Z,1006.01
2024-04-25T23:38:38.376Z,1006.01
2024-04-25T23:43:30.764Z,1006.06
2024-04-25T23:48:23.453Z,1005.98
2024-04-25T23:53:15.212Z,1005.96
2024-04-25T23:58:08.028Z,1005.93
